Delhi, Illinois
Current Conditions -  °F | °C
As of 7:54 AM on Thursday 23 Oct 2014 (Local Time) from KSET Reporting Station
Haze Haze  
Wind Chill: 39°   Ceiling: Unl
Heat Index: 42°   Visibility: 5mi
Dew Point: 40°   Wind: 5mph
Humidity: 92%   Direction: 90°E
Pressure: 30.2"   Gusts: NA
Location:  39.1259°N, 90.3475°W
Report Text: KSET 231254Z AUTO 09004KT 5SM BR CLR 06/04 A3020 RMK AO2 SLP227 T00560044
Loading
Personal Weather Stations






























Interactive Weather Map
Tropical Storm Tracking
New forecast layout! Learn more

10-Day Weather Forecast

Advertisements
Track Severe Weather on mobile